sensor_id;sensor_type;location;lat;lon;timestamp;P1;durP1;ratioP1;P2;durP2;ratioP2
13834;SDS011;6988;52.614;13.500;2023-05-07T00:01:47;18.93;;;15.87;;
13834;SDS011;6988;52.614;13.500;2023-05-07T00:06:38;17.37;;;14.90;;
13834;SDS011;6988;52.614;13.500;2023-05-07T00:11:31;17.37;;;14.03;;
13834;SDS011;6988;52.614;13.500;2023-05-07T00:16:24;15.83;;;14.23;;
13834;SDS011;6988;52.614;13.500;2023-05-07T00:21:17;16.47;;;14.30;;
13834;SDS011;6988;52.614;13.500;2023-05-07T00:26:09;18.63;;;14.87;;
13834;SDS011;6988;52.614;13.500;2023-05-07T00:31:01;16.13;;;14.43;;
13834;SDS011;6988;52.614;13.500;2023-05-07T00:35:53;16.30;;;14.60;;
13834;SDS011;6988;52.614;13.500;2023-05-07T00:40:46;15.40;;;13.80;;
13834;SDS011;6988;52.614;13.500;2023-05-07T00:45:38;18.03;;;14.40;;
13834;SDS011;6988;52.614;13.500;2023-05-07T00:50:30;19.77;;;13.70;;
13834;SDS011;6988;52.614;13.500;2023-05-07T00:55:24;16.10;;;14.13;;
13834;SDS011;6988;52.614;13.500;2023-05-07T01:00:17;16.07;;;14.07;;
13834;SDS011;6988;52.614;13.500;2023-05-07T01:05:11;17.30;;;14.40;;
13834;SDS011;6988;52.614;13.500;2023-05-07T01:10:07;17.87;;;14.80;;
13834;SDS011;6988;52.614;13.500;2023-05-07T01:15:03;19.23;;;15.03;;
13834;SDS011;6988;52.614;13.500;2023-05-07T01:20:00;18.17;;;15.17;;
13834;SDS011;6988;52.614;13.500;2023-05-07T01:24:53;17.03;;;14.93;;
13834;SDS011;6988;52.614;13.500;2023-05-07T01:29:46;17.80;;;14.87;;
13834;SDS011;6988;52.614;13.500;2023-05-07T01:34:39;19.77;;;14.77;;
13834;SDS011;6988;52.614;13.500;2023-05-07T01:39:31;16.63;;;14.83;;
13834;SDS011;6988;52.614;13.500;2023-05-07T01:44:26;16.00;;;13.90;;
13834;SDS011;6988;52.614;13.500;2023-05-07T01:49:19;16.07;;;13.47;;
13834;SDS011;6988;52.614;13.500;2023-05-07T01:54:11;16.40;;;13.93;;
13834;SDS011;6988;52.614;13.500;2023-05-07T01:59:05;16.13;;;12.87;;
13834;SDS011;6988;52.614;13.500;2023-05-07T02:03:58;15.03;;;12.70;;
13834;SDS011;6988;52.614;13.500;2023-05-07T02:08:52;13.87;;;12.33;;
13834;SDS011;6988;52.614;13.500;2023-05-07T02:13:44;14.60;;;12.03;;
13834;SDS011;6988;52.614;13.500;2023-05-07T02:18:36;15.17;;;12.67;;
13834;SDS011;6988;52.614;13.500;2023-05-07T02:23:30;14.73;;;12.50;;
13834;SDS011;6988;52.614;13.500;2023-05-07T02:28:22;13.90;;;12.17;;
13834;SDS011;6988;52.614;13.500;2023-05-07T02:33:26;16.33;;;12.13;;
13834;SDS011;6988;52.614;13.500;2023-05-07T02:38:18;16.03;;;12.87;;
13834;SDS011;6988;52.614;13.500;2023-05-07T02:43:11;14.27;;;11.77;;
13834;SDS011;6988;52.614;13.500;2023-05-07T02:48:07;12.80;;;10.27;;
13834;SDS011;6988;52.614;13.500;2023-05-07T02:52:59;11.03;;;9.83;;
13834;SDS011;6988;52.614;13.500;2023-05-07T02:57:51;13.60;;;11.43;;
13834;SDS011;6988;52.614;13.500;2023-05-07T03:02:44;13.93;;;11.77;;
13834;SDS011;6988;52.614;13.500;2023-05-07T03:07:37;12.63;;;11.20;;
13834;SDS011;6988;52.614;13.500;2023-05-07T03:12:29;15.23;;;11.07;;
13834;SDS011;6988;52.614;13.500;2023-05-07T03:17:22;14.53;;;10.80;;
13834;SDS011;6988;52.614;13.500;2023-05-07T03:22:15;12.00;;;10.70;;
13834;SDS011;6988;52.614;13.500;2023-05-07T03:27:07;13.20;;;10.43;;
13834;SDS011;6988;52.614;13.500;2023-05-07T03:32:00;13.07;;;10.50;;
13834;SDS011;6988;52.614;13.500;2023-05-07T03:36:52;13.80;;;10.60;;
13834;SDS011;6988;52.614;13.500;2023-05-07T03:41:48;10.87;;;9.77;;
13834;SDS011;6988;52.614;13.500;2023-05-07T03:46:40;10.97;;;9.63;;
13834;SDS011;6988;52.614;13.500;2023-05-07T03:51:34;12.43;;;9.70;;
13834;SDS011;6988;52.614;13.500;2023-05-07T03:56:28;10.80;;;9.10;;
13834;SDS011;6988;52.614;13.500;2023-05-07T04:01:23;11.67;;;9.60;;
13834;SDS011;6988;52.614;13.500;2023-05-07T04:06:16;12.90;;;10.77;;
13834;SDS011;6988;52.614;13.500;2023-05-07T04:11:11;12.43;;;10.03;;
13834;SDS011;6988;52.614;13.500;2023-05-07T04:16:04;14.13;;;10.80;;
13834;SDS011;6988;52.614;13.500;2023-05-07T04:21:00;13.63;;;11.00;;
13834;SDS011;6988;52.614;13.500;2023-05-07T04:25:52;14.23;;;10.63;;
13834;SDS011;6988;52.614;13.500;2023-05-07T04:30:51;11.37;;;10.13;;
13834;SDS011;6988;52.614;13.500;2023-05-07T04:35:45;12.03;;;9.87;;
13834;SDS011;6988;52.614;13.500;2023-05-07T04:40:39;13.33;;;9.97;;
13834;SDS011;6988;52.614;13.500;2023-05-07T04:45:33;12.43;;;9.37;;
13834;SDS011;6988;52.614;13.500;2023-05-07T04:50:26;10.77;;;9.10;;
13834;SDS011;6988;52.614;13.500;2023-05-07T04:55:23;14.80;;;9.93;;
13834;SDS011;6988;52.614;13.500;2023-05-07T05:00:17;10.40;;;9.30;;
13834;SDS011;6988;52.614;13.500;2023-05-07T05:05:10;11.47;;;8.77;;
13834;SDS011;6988;52.614;13.500;2023-05-07T05:10:03;11.67;;;8.40;;
13834;SDS011;6988;52.614;13.500;2023-05-07T05:15:00;9.77;;;7.90;;
13834;SDS011;6988;52.614;13.500;2023-05-07T05:19:53;9.27;;;8.23;;
13834;SDS011;6988;52.614;13.500;2023-05-07T05:24:47;10.93;;;9.20;;
13834;SDS011;6988;52.614;13.500;2023-05-07T05:29:39;10.87;;;9.40;;
13834;SDS011;6988;52.614;13.500;2023-05-07T05:34:31;11.37;;;10.17;;
13834;SDS011;6988;52.614;13.500;2023-05-07T05:39:26;11.53;;;9.43;;
13834;SDS011;6988;52.614;13.500;2023-05-07T05:44:18;10.40;;;9.30;;
13834;SDS011;6988;52.614;13.500;2023-05-07T05:49:10;13.37;;;9.60;;
13834;SDS011;6988;52.614;13.500;2023-05-07T05:54:03;12.23;;;9.27;;
13834;SDS011;6988;52.614;13.500;2023-05-07T05:58:58;12.47;;;9.77;;
13834;SDS011;6988;52.614;13.500;2023-05-07T06:03:50;11.73;;;9.07;;
13834;SDS011;6988;52.614;13.500;2023-05-07T06:08:43;9.83;;;8.80;;
13834;SDS011;6988;52.614;13.500;2023-05-07T06:13:38;10.03;;;8.07;;
13834;SDS011;6988;52.614;13.500;2023-05-07T06:18:31;10.27;;;8.00;;
13834;SDS011;6988;52.614;13.500;2023-05-07T06:23:26;9.10;;;7.73;;
13834;SDS011;6988;52.614;13.500;2023-05-07T06:28:19;10.80;;;7.60;;
13834;SDS011;6988;52.614;13.500;2023-05-07T06:33:11;11.53;;;7.47;;
13834;SDS011;6988;52.614;13.500;2023-05-07T06:38:04;9.67;;;7.70;;
13834;SDS011;6988;52.614;13.500;2023-05-07T06:42:56;9.37;;;6.87;;
13834;SDS011;6988;52.614;13.500;2023-05-07T06:47:59;10.13;;;7.20;;
13834;SDS011;6988;52.614;13.500;2023-05-07T06:52:54;7.30;;;6.50;;
13834;SDS011;6988;52.614;13.500;2023-05-07T06:57:48;9.33;;;7.13;;
13834;SDS011;6988;52.614;13.500;2023-05-07T07:02:41;8.47;;;7.03;;
13834;SDS011;6988;52.614;13.500;2023-05-07T07:07:35;7.07;;;6.03;;
13834;SDS011;6988;52.614;13.500;2023-05-07T07:12:27;9.03;;;6.40;;
13834;SDS011;6988;52.614;13.500;2023-05-07T07:17:21;6.67;;;5.93;;
13834;SDS011;6988;52.614;13.500;2023-05-07T07:22:16;6.57;;;5.87;;
13834;SDS011;6988;52.614;13.500;2023-05-07T07:27:08;8.63;;;5.47;;
13834;SDS011;6988;52.614;13.500;2023-05-07T07:32:00;6.50;;;5.30;;
13834;SDS011;6988;52.614;13.500;2023-05-07T07:36:54;7.33;;;5.07;;
13834;SDS011;6988;52.614;13.500;2023-05-07T07:41:48;8.67;;;4.50;;
13834;SDS011;6988;52.614;13.500;2023-05-07T07:46:40;5.77;;;4.60;;
13834;SDS011;6988;52.614;13.500;2023-05-07T07:51:33;6.37;;;5.10;;
13834;SDS011;6988;52.614;13.500;2023-05-07T07:56:28;4.37;;;3.60;;
13834;SDS011;6988;52.614;13.500;2023-05-07T08:01:20;4.03;;;3.57;;
13834;SDS011;6988;52.614;13.500;2023-05-07T08:06:12;6.37;;;4.00;;
13834;SDS011;6988;52.614;13.500;2023-05-07T08:11:04;4.30;;;3.57;;
13834;SDS011;6988;52.614;13.500;2023-05-07T08:16:00;3.93;;;3.17;;
13834;SDS011;6988;52.614;13.500;2023-05-07T08:20:53;4.40;;;3.50;;
13834;SDS011;6988;52.614;13.500;2023-05-07T08:25:47;3.93;;;3.10;;
13834;SDS011;6988;52.614;13.500;2023-05-07T08:30:41;4.93;;;3.50;;
13834;SDS011;6988;52.614;13.500;2023-05-07T08:35:35;5.43;;;3.87;;
13834;SDS011;6988;52.614;13.500;2023-05-07T08:40:27;5.37;;;3.70;;
13834;SDS011;6988;52.614;13.500;2023-05-07T08:45:24;4.20;;;3.30;;
13834;SDS011;6988;52.614;13.500;2023-05-07T08:50:19;6.07;;;3.57;;
13834;SDS011;6988;52.614;13.500;2023-05-07T08:55:14;4.40;;;2.77;;
13834;SDS011;6988;52.614;13.500;2023-05-07T09:00:08;4.20;;;3.00;;
13834;SDS011;6988;52.614;13.500;2023-05-07T09:05:02;3.67;;;2.57;;
13834;SDS011;6988;52.614;13.500;2023-05-07T09:09:54;3.50;;;2.50;;
13834;SDS011;6988;52.614;13.500;2023-05-07T09:14:48;4.40;;;2.83;;
13834;SDS011;6988;52.614;13.500;2023-05-07T09:19:42;4.53;;;2.60;;
13834;SDS011;6988;52.614;13.500;2023-05-07T09:24:35;4.60;;;2.50;;
13834;SDS011;6988;52.614;13.500;2023-05-07T09:29:30;2.40;;;2.20;;
13834;SDS011;6988;52.614;13.500;2023-05-07T09:34:28;3.07;;;2.60;;
13834;SDS011;6988;52.614;13.500;2023-05-07T09:39:20;3.80;;;2.57;;
13834;SDS011;6988;52.614;13.500;2023-05-07T09:44:12;2.87;;;2.37;;
13834;SDS011;6988;52.614;13.500;2023-05-07T09:49:11;2.40;;;2.20;;
13834;SDS011;6988;52.614;13.500;2023-05-07T09:54:22;3.10;;;2.80;;
13834;SDS011;6988;52.614;13.500;2023-05-07T09:59:17;3.10;;;2.30;;
13834;SDS011;6988;52.614;13.500;2023-05-07T10:04:12;2.90;;;2.33;;
13834;SDS011;6988;52.614;13.500;2023-05-07T10:09:07;2.40;;;2.17;;
13834;SDS011;6988;52.614;13.500;2023-05-07T10:14:03;3.03;;;2.00;;
13834;SDS011;6988;52.614;13.500;2023-05-07T10:18:57;5.37;;;2.30;;
13834;SDS011;6988;52.614;13.500;2023-05-07T10:23:53;4.10;;;2.10;;
13834;SDS011;6988;52.614;13.500;2023-05-07T10:28:53;2.90;;;1.90;;
13834;SDS011;6988;52.614;13.500;2023-05-07T10:33:54;2.97;;;2.00;;
13834;SDS011;6988;52.614;13.500;2023-05-07T10:38:49;3.60;;;1.90;;
13834;SDS011;6988;52.614;13.500;2023-05-07T10:43:42;3.67;;;1.97;;
13834;SDS011;6988;52.614;13.500;2023-05-07T10:54:22;2.80;;;1.93;;
13834;SDS011;6988;52.614;13.500;2023-05-07T10:59:32;4.07;;;1.80;;
13834;SDS011;6988;52.614;13.500;2023-05-07T11:04:42;2.27;;;1.70;;
13834;SDS011;6988;52.614;13.500;2023-05-07T11:09:53;2.10;;;1.60;;
13834;SDS011;6988;52.614;13.500;2023-05-07T11:15:01;2.60;;;1.53;;
13834;SDS011;6988;52.614;13.500;2023-05-07T11:20:00;2.50;;;1.93;;
13834;SDS011;6988;52.614;13.500;2023-05-07T11:25:09;2.50;;;1.87;;
13834;SDS011;6988;52.614;13.500;2023-05-07T11:30:02;2.93;;;1.97;;
13834;SDS011;6988;52.614;13.500;2023-05-07T11:34:55;1.73;;;1.40;;
13834;SDS011;6988;52.614;13.500;2023-05-07T11:39:50;3.77;;;1.57;;
13834;SDS011;6988;52.614;13.500;2023-05-07T11:44:52;2.77;;;1.80;;
13834;SDS011;6988;52.614;13.500;2023-05-07T11:49:45;2.30;;;1.30;;
13834;SDS011;6988;52.614;13.500;2023-05-07T11:54:38;2.20;;;1.50;;
13834;SDS011;6988;52.614;13.500;2023-05-07T11:59:31;2.50;;;1.60;;
13834;SDS011;6988;52.614;13.500;2023-05-07T12:04:30;2.10;;;1.57;;
13834;SDS011;6988;52.614;13.500;2023-05-07T12:09:21;3.00;;;1.63;;
13834;SDS011;6988;52.614;13.500;2023-05-07T12:14:13;2.30;;;1.60;;
13834;SDS011;6988;52.614;13.500;2023-05-07T12:19:08;3.73;;;1.67;;
13834;SDS011;6988;52.614;13.500;2023-05-07T12:24:03;2.40;;;1.53;;
13834;SDS011;6988;52.614;13.500;2023-05-07T12:28:56;2.33;;;1.70;;
13834;SDS011;6988;52.614;13.500;2023-05-07T12:33:48;1.97;;;1.40;;
13834;SDS011;6988;52.614;13.500;2023-05-07T12:38:42;2.13;;;1.60;;
13834;SDS011;6988;52.614;13.500;2023-05-07T12:43:34;5.50;;;1.70;;
13834;SDS011;6988;52.614;13.500;2023-05-07T12:48:26;1.90;;;1.37;;
13834;SDS011;6988;52.614;13.500;2023-05-07T12:53:19;2.37;;;1.37;;
13834;SDS011;6988;52.614;13.500;2023-05-07T12:58:18;2.03;;;1.60;;
13834;SDS011;6988;52.614;13.500;2023-05-07T13:03:15;2.30;;;1.60;;
13834;SDS011;6988;52.614;13.500;2023-05-07T13:08:22;2.13;;;1.67;;
13834;SDS011;6988;52.614;13.500;2023-05-07T13:13:18;2.30;;;1.50;;
13834;SDS011;6988;52.614;13.500;2023-05-07T13:18:10;3.00;;;1.53;;
13834;SDS011;6988;52.614;13.500;2023-05-07T13:23:01;3.20;;;1.60;;
13834;SDS011;6988;52.614;13.500;2023-05-07T13:27:54;1.73;;;1.40;;
13834;SDS011;6988;52.614;13.500;2023-05-07T13:32:48;2.90;;;1.60;;
13834;SDS011;6988;52.614;13.500;2023-05-07T13:37:42;2.40;;;1.47;;
13834;SDS011;6988;52.614;13.500;2023-05-07T13:42:33;2.70;;;1.50;;
13834;SDS011;6988;52.614;13.500;2023-05-07T13:47:25;2.23;;;1.40;;
13834;SDS011;6988;52.614;13.500;2023-05-07T13:52:18;2.80;;;1.63;;
13834;SDS011;6988;52.614;13.500;2023-05-07T13:57:10;3.87;;;1.70;;
13834;SDS011;6988;52.614;13.500;2023-05-07T14:02:02;4.07;;;1.70;;
13834;SDS011;6988;52.614;13.500;2023-05-07T14:06:53;2.17;;;1.60;;
13834;SDS011;6988;52.614;13.500;2023-05-07T14:11:47;3.87;;;1.60;;
13834;SDS011;6988;52.614;13.500;2023-05-07T14:16:41;3.77;;;1.90;;
13834;SDS011;6988;52.614;13.500;2023-05-07T14:21:33;2.57;;;1.50;;
13834;SDS011;6988;52.614;13.500;2023-05-07T14:26:24;2.60;;;1.40;;
13834;SDS011;6988;52.614;13.500;2023-05-07T14:31:18;2.43;;;1.23;;
13834;SDS011;6988;52.614;13.500;2023-05-07T14:36:10;2.07;;;1.17;;
13834;SDS011;6988;52.614;13.500;2023-05-07T14:41:02;4.53;;;1.40;;
13834;SDS011;6988;52.614;13.500;2023-05-07T14:45:54;1.87;;;1.30;;
13834;SDS011;6988;52.614;13.500;2023-05-07T14:50:47;1.60;;;1.10;;
13834;SDS011;6988;52.614;13.500;2023-05-07T14:55:39;2.07;;;1.10;;
13834;SDS011;6988;52.614;13.500;2023-05-07T15:00:31;3.10;;;1.30;;
13834;SDS011;6988;52.614;13.500;2023-05-07T15:05:23;1.60;;;1.13;;
13834;SDS011;6988;52.614;13.500;2023-05-07T15:10:16;1.70;;;1.20;;
13834;SDS011;6988;52.614;13.500;2023-05-07T15:15:09;1.57;;;1.20;;
13834;SDS011;6988;52.614;13.500;2023-05-07T15:20:01;2.33;;;1.00;;
13834;SDS011;6988;52.614;13.500;2023-05-07T15:24:54;1.60;;;1.00;;
13834;SDS011;6988;52.614;13.500;2023-05-07T15:29:48;1.37;;;0.93;;
13834;SDS011;6988;52.614;13.500;2023-05-07T15:34:40;2.93;;;1.10;;
13834;SDS011;6988;52.614;13.500;2023-05-07T15:39:32;5.07;;;1.20;;
13834;SDS011;6988;52.614;13.500;2023-05-07T15:44:24;1.30;;;1.00;;
13834;SDS011;6988;52.614;13.500;2023-05-07T15:49:19;1.87;;;1.10;;
13834;SDS011;6988;52.614;13.500;2023-05-07T15:54:12;3.03;;;1.20;;
13834;SDS011;6988;52.614;13.500;2023-05-07T15:59:03;3.47;;;1.20;;
13834;SDS011;6988;52.614;13.500;2023-05-07T16:03:55;1.60;;;1.00;;
13834;SDS011;6988;52.614;13.500;2023-05-07T16:08:48;2.90;;;0.90;;
13834;SDS011;6988;52.614;13.500;2023-05-07T16:13:40;2.50;;;1.30;;
13834;SDS011;6988;52.614;13.500;2023-05-07T16:18:32;2.03;;;1.20;;
13834;SDS011;6988;52.614;13.500;2023-05-07T16:23:24;3.90;;;1.10;;
13834;SDS011;6988;52.614;13.500;2023-05-07T16:28:17;1.73;;;1.23;;
13834;SDS011;6988;52.614;13.500;2023-05-07T16:33:09;2.17;;;1.03;;
13834;SDS011;6988;52.614;13.500;2023-05-07T16:38:01;3.80;;;1.13;;
13834;SDS011;6988;52.614;13.500;2023-05-07T16:42:58;1.30;;;1.20;;
13834;SDS011;6988;52.614;13.500;2023-05-07T16:47:51;2.03;;;1.20;;
13834;SDS011;6988;52.614;13.500;2023-05-07T16:52:43;1.40;;;1.10;;
13834;SDS011;6988;52.614;13.500;2023-05-07T16:57:35;1.93;;;1.10;;
13834;SDS011;6988;52.614;13.500;2023-05-07T17:02:27;2.83;;;1.30;;
13834;SDS011;6988;52.614;13.500;2023-05-07T17:07:20;1.43;;;1.17;;
13834;SDS011;6988;52.614;13.500;2023-05-07T17:12:12;2.10;;;1.10;;
13834;SDS011;6988;52.614;13.500;2023-05-07T17:17:03;1.83;;;1.20;;
13834;SDS011;6988;52.614;13.500;2023-05-07T17:21:55;2.20;;;1.27;;
13834;SDS011;6988;52.614;13.500;2023-05-07T17:26:48;1.30;;;1.00;;
13834;SDS011;6988;52.614;13.500;2023-05-07T17:31:40;1.40;;;1.00;;
13834;SDS011;6988;52.614;13.500;2023-05-07T17:36:32;3.03;;;1.20;;
13834;SDS011;6988;52.614;13.500;2023-05-07T17:41:24;1.70;;;1.33;;
13834;SDS011;6988;52.614;13.500;2023-05-07T17:46:17;2.20;;;1.40;;
13834;SDS011;6988;52.614;13.500;2023-05-07T17:51:08;1.30;;;1.07;;
13834;SDS011;6988;52.614;13.500;2023-05-07T17:56:00;2.47;;;1.07;;
13834;SDS011;6988;52.614;13.500;2023-05-07T18:00:52;1.50;;;1.10;;
13834;SDS011;6988;52.614;13.500;2023-05-07T18:05:46;1.80;;;1.10;;
13834;SDS011;6988;52.614;13.500;2023-05-07T18:10:38;1.70;;;1.20;;
13834;SDS011;6988;52.614;13.500;2023-05-07T18:15:29;1.23;;;1.10;;
13834;SDS011;6988;52.614;13.500;2023-05-07T18:20:21;1.90;;;1.17;;
13834;SDS011;6988;52.614;13.500;2023-05-07T18:25:14;1.40;;;1.10;;
13834;SDS011;6988;52.614;13.500;2023-05-07T18:30:06;1.23;;;1.10;;
13834;SDS011;6988;52.614;13.500;2023-05-07T18:34:59;1.97;;;1.50;;
13834;SDS011;6988;52.614;13.500;2023-05-07T18:39:51;1.50;;;1.13;;
13834;SDS011;6988;52.614;13.500;2023-05-07T18:44:44;1.73;;;1.40;;
13834;SDS011;6988;52.614;13.500;2023-05-07T18:49:36;1.80;;;1.30;;
13834;SDS011;6988;52.614;13.500;2023-05-07T18:54:28;1.90;;;1.23;;
13834;SDS011;6988;52.614;13.500;2023-05-07T18:59:32;3.80;;;1.50;;
13834;SDS011;6988;52.614;13.500;2023-05-07T19:04:26;1.50;;;1.40;;
13834;SDS011;6988;52.614;13.500;2023-05-07T19:09:18;1.77;;;1.30;;
13834;SDS011;6988;52.614;13.500;2023-05-07T19:14:10;2.80;;;1.40;;
13834;SDS011;6988;52.614;13.500;2023-05-07T19:19:02;1.70;;;1.40;;
13834;SDS011;6988;52.614;13.500;2023-05-07T19:23:56;2.87;;;1.33;;
13834;SDS011;6988;52.614;13.500;2023-05-07T19:28:50;2.70;;;1.70;;
13834;SDS011;6988;52.614;13.500;2023-05-07T19:33:42;2.03;;;1.60;;
13834;SDS011;6988;52.614;13.500;2023-05-07T19:38:34;2.20;;;1.70;;
13834;SDS011;6988;52.614;13.500;2023-05-07T19:43:27;3.67;;;1.73;;
13834;SDS011;6988;52.614;13.500;2023-05-07T19:48:24;2.37;;;1.60;;
13834;SDS011;6988;52.614;13.500;2023-05-07T19:53:16;3.40;;;1.70;;
13834;SDS011;6988;52.614;13.500;2023-05-07T19:58:08;5.63;;;1.93;;
13834;SDS011;6988;52.614;13.500;2023-05-07T20:03:01;2.23;;;1.70;;
13834;SDS011;6988;52.614;13.500;2023-05-07T20:07:54;3.90;;;2.30;;
13834;SDS011;6988;52.614;13.500;2023-05-07T20:12:46;2.00;;;1.80;;
13834;SDS011;6988;52.614;13.500;2023-05-07T20:17:38;3.00;;;1.80;;
13834;SDS011;6988;52.614;13.500;2023-05-07T20:22:31;2.17;;;1.50;;
13834;SDS011;6988;52.614;13.500;2023-05-07T20:27:23;2.50;;;2.20;;
13834;SDS011;6988;52.614;13.500;2023-05-07T20:32:16;4.30;;;1.73;;
13834;SDS011;6988;52.614;13.500;2023-05-07T20:37:08;3.60;;;1.97;;
13834;SDS011;6988;52.614;13.500;2023-05-07T20:42:04;2.00;;;1.70;;
13834;SDS011;6988;52.614;13.500;2023-05-07T20:46:56;3.90;;;2.07;;
13834;SDS011;6988;52.614;13.500;2023-05-07T20:51:48;1.90;;;1.67;;
13834;SDS011;6988;52.614;13.500;2023-05-07T20:56:40;4.07;;;2.00;;
13834;SDS011;6988;52.614;13.500;2023-05-07T21:01:33;4.83;;;2.50;;
13834;SDS011;6988;52.614;13.500;2023-05-07T21:06:26;3.93;;;2.70;;
13834;SDS011;6988;52.614;13.500;2023-05-07T21:11:17;4.70;;;3.00;;
13834;SDS011;6988;52.614;13.500;2023-05-07T21:16:10;2.97;;;2.63;;
13834;SDS011;6988;52.614;13.500;2023-05-07T21:21:07;3.77;;;2.97;;
13834;SDS011;6988;52.614;13.500;2023-05-07T21:25:59;4.30;;;3.10;;
13834;SDS011;6988;52.614;13.500;2023-05-07T21:30:51;3.90;;;3.00;;
13834;SDS011;6988;52.614;13.500;2023-05-07T21:35:43;5.07;;;3.40;;
13834;SDS011;6988;52.614;13.500;2023-05-07T21:40:36;4.70;;;3.43;;
13834;SDS011;6988;52.614;13.500;2023-05-07T21:45:28;4.07;;;3.17;;
13834;SDS011;6988;52.614;13.500;2023-05-07T22:04:49;5.63;;;3.90;;
13834;SDS011;6988;52.614;13.500;2023-05-07T22:09:41;4.23;;;3.80;;
13834;SDS011;6988;52.614;13.500;2023-05-07T22:14:33;6.23;;;3.93;;
13834;SDS011;6988;52.614;13.500;2023-05-07T22:19:25;4.30;;;3.90;;
13834;SDS011;6988;52.614;13.500;2023-05-07T22:24:18;4.73;;;4.33;;
13834;SDS011;6988;52.614;13.500;2023-05-07T22:29:10;4.77;;;3.93;;
13834;SDS011;6988;52.614;13.500;2023-05-07T22:34:02;4.87;;;4.40;;
13834;SDS011;6988;52.614;13.500;2023-05-07T22:38:54;5.10;;;4.43;;
13834;SDS011;6988;52.614;13.500;2023-05-07T22:43:47;5.30;;;4.80;;
13834;SDS011;6988;52.614;13.500;2023-05-07T22:48:39;5.13;;;4.50;;
13834;SDS011;6988;52.614;13.500;2023-05-07T22:53:30;5.10;;;4.70;;
13834;SDS011;6988;52.614;13.500;2023-05-07T22:58:22;5.87;;;5.27;;
13834;SDS011;6988;52.614;13.500;2023-05-07T23:03:15;5.97;;;5.27;;
13834;SDS011;6988;52.614;13.500;2023-05-07T23:08:07;5.73;;;4.97;;
13834;SDS011;6988;52.614;13.500;2023-05-07T23:12:59;5.80;;;4.97;;
13834;SDS011;6988;52.614;13.500;2023-05-07T23:17:51;8.77;;;5.27;;
13834;SDS011;6988;52.614;13.500;2023-05-07T23:22:44;7.47;;;5.47;;
13834;SDS011;6988;52.614;13.500;2023-05-07T23:27:36;5.70;;;5.10;;
13834;SDS011;6988;52.614;13.500;2023-05-07T23:32:29;6.67;;;5.67;;
13834;SDS011;6988;52.614;13.500;2023-05-07T23:37:21;8.37;;;5.73;;
13834;SDS011;6988;52.614;13.500;2023-05-07T23:42:14;6.57;;;5.67;;
13834;SDS011;6988;52.614;13.500;2023-05-07T23:47:06;6.90;;;6.00;;
13834;SDS011;6988;52.614;13.500;2023-05-07T23:51:58;6.83;;;6.13;;
13834;SDS011;6988;52.614;13.500;2023-05-07T23:56:49;7.63;;;6.30;;
